sensor_id;sensor_type;location;lat;lon;timestamp;temperature;humidity
18339;DHT22;9295;44.484;11.240;2023-02-03T00:01:40;5.90;99.90
18339;DHT22;9295;44.484;11.240;2023-02-03T00:04:09;5.80;99.90
18339;DHT22;9295;44.484;11.240;2023-02-03T00:06:37;5.70;99.90
18339;DHT22;9295;44.484;11.240;2023-02-03T00:09:06;5.60;99.90
18339;DHT22;9295;44.484;11.240;2023-02-03T00:11:37;5.60;99.90
18339;DHT22;9295;44.484;11.240;2023-02-03T00:14:05;5.50;99.90
18339;DHT22;9295;44.484;11.240;2023-02-03T00:16:34;5.40;99.90
18339;DHT22;9295;44.484;11.240;2023-02-03T00:19:03;5.30;99.90
18339;DHT22;9295;44.484;11.240;2023-02-03T00:21:31;5.30;99.90
18339;DHT22;9295;44.484;11.240;2023-02-03T00:24:00;5.30;99.90
18339;DHT22;9295;44.484;11.240;2023-02-03T00:26:28;5.30;99.90
18339;DHT22;9295;44.484;11.240;2023-02-03T00:28:59;5.30;99.90
18339;DHT22;9295;44.484;11.240;2023-02-03T00:31:28;5.20;99.90
18339;DHT22;9295;44.484;11.240;2023-02-03T00:33:57;5.20;99.90
18339;DHT22;9295;44.484;11.240;2023-02-03T00:36:25;5.30;99.90
18339;DHT22;9295;44.484;11.240;2023-02-03T00:38:54;5.30;99.90
18339;DHT22;9295;44.484;11.240;2023-02-03T00:41:22;5.40;99.90
18339;DHT22;9295;44.484;11.240;2023-02-03T00:43:55;5.40;99.90
18339;DHT22;9295;44.484;11.240;2023-02-03T00:46:25;5.40;99.90
18339;DHT22;9295;44.484;11.240;2023-02-03T00:48:53;5.40;99.90
18339;DHT22;9295;44.484;11.240;2023-02-03T00:51:22;5.30;99.90
18339;DHT22;9295;44.484;11.240;2023-02-03T00:53:50;5.20;99.90
18339;DHT22;9295;44.484;11.240;2023-02-03T00:56:18;5.20;99.90
18339;DHT22;9295;44.484;11.240;2023-02-03T00:58:47;5.10;99.90
18339;DHT22;9295;44.484;11.240;2023-02-03T01:01:15;5.10;99.90
18339;DHT22;9295;44.484;11.240;2023-02-03T01:03:45;5.00;99.90
18339;DHT22;9295;44.484;11.240;2023-02-03T01:06:17;5.00;99.90
18339;DHT22;9295;44.484;11.240;2023-02-03T01:08:47;5.00;99.90
18339;DHT22;9295;44.484;11.240;2023-02-03T01:11:17;4.90;99.90
18339;DHT22;9295;44.484;11.240;2023-02-03T01:13:47;4.90;99.90
18339;DHT22;9295;44.484;11.240;2023-02-03T01:16:18;4.90;99.90
18339;DHT22;9295;44.484;11.240;2023-02-03T01:18:49;4.90;99.90
18339;DHT22;9295;44.484;11.240;2023-02-03T01:21:20;4.90;99.90
18339;DHT22;9295;44.484;11.240;2023-02-03T01:23:51;4.80;99.90
18339;DHT22;9295;44.484;11.240;2023-02-03T01:26:20;4.80;99.90
18339;DHT22;9295;44.484;11.240;2023-02-03T01:28:50;4.80;99.90
18339;DHT22;9295;44.484;11.240;2023-02-03T01:31:20;4.80;99.90
18339;DHT22;9295;44.484;11.240;2023-02-03T01:33:52;4.90;99.90
18339;DHT22;9295;44.484;11.240;2023-02-03T01:36:23;4.90;99.90
18339;DHT22;9295;44.484;11.240;2023-02-03T01:38:52;5.00;99.90
18339;DHT22;9295;44.484;11.240;2023-02-03T01:41:23;5.00;99.90
18339;DHT22;9295;44.484;11.240;2023-02-03T01:43:53;5.00;99.90
18339;DHT22;9295;44.484;11.240;2023-02-03T01:46:26;5.00;99.90
18339;DHT22;9295;44.484;11.240;2023-02-03T01:49:07;5.10;99.90
18339;DHT22;9295;44.484;11.240;2023-02-03T01:51:41;5.10;99.90
18339;DHT22;9295;44.484;11.240;2023-02-03T01:54:14;5.00;99.90
18339;DHT22;9295;44.484;11.240;2023-02-03T01:56:47;5.00;99.90
18339;DHT22;9295;44.484;11.240;2023-02-03T01:59:19;5.10;99.90
18339;DHT22;9295;44.484;11.240;2023-02-03T02:01:50;5.10;99.90
18339;DHT22;9295;44.484;11.240;2023-02-03T02:04:25;5.10;99.90
18339;DHT22;9295;44.484;11.240;2023-02-03T02:06:57;5.10;99.90
18339;DHT22;9295;44.484;11.240;2023-02-03T02:09:26;5.10;99.90
18339;DHT22;9295;44.484;11.240;2023-02-03T02:11:55;5.10;99.90
18339;DHT22;9295;44.484;11.240;2023-02-03T02:14:23;5.10;99.90
18339;DHT22;9295;44.484;11.240;2023-02-03T02:16:56;5.00;99.90
18339;DHT22;9295;44.484;11.240;2023-02-03T02:23:08;4.90;99.90
18339;DHT22;9295;44.484;11.240;2023-02-03T02:26:03;4.90;99.90
18339;DHT22;9295;44.484;11.240;2023-02-03T02:29:00;4.80;99.90
18339;DHT22;9295;44.484;11.240;2023-02-03T02:32:09;4.70;99.90
18339;DHT22;9295;44.484;11.240;2023-02-03T02:34:49;4.70;99.90
18339;DHT22;9295;44.484;11.240;2023-02-03T02:37:34;4.60;99.90
18339;DHT22;9295;44.484;11.240;2023-02-03T02:40:14;4.60;99.90
18339;DHT22;9295;44.484;11.240;2023-02-03T02:42:54;4.60;99.90
18339;DHT22;9295;44.484;11.240;2023-02-03T02:45:29;4.60;99.90
18339;DHT22;9295;44.484;11.240;2023-02-03T02:48:05;4.60;99.90
18339;DHT22;9295;44.484;11.240;2023-02-03T02:50:39;4.60;99.90
18339;DHT22;9295;44.484;11.240;2023-02-03T02:53:09;4.60;99.90
18339;DHT22;9295;44.484;11.240;2023-02-03T02:55:41;4.60;99.90
18339;DHT22;9295;44.484;11.240;2023-02-03T02:58:13;4.60;99.90
18339;DHT22;9295;44.484;11.240;2023-02-03T03:00:43;4.50;99.90
18339;DHT22;9295;44.484;11.240;2023-02-03T03:03:15;4.50;99.90
18339;DHT22;9295;44.484;11.240;2023-02-03T03:05:48;4.40;99.90
18339;DHT22;9295;44.484;11.240;2023-02-03T03:08:24;4.40;99.90
18339;DHT22;9295;44.484;11.240;2023-02-03T03:10:56;4.40;99.90
18339;DHT22;9295;44.484;11.240;2023-02-03T03:13:29;4.40;99.90
18339;DHT22;9295;44.484;11.240;2023-02-03T03:16:01;4.40;99.90
18339;DHT22;9295;44.484;11.240;2023-02-03T03:18:37;4.40;99.90
18339;DHT22;9295;44.484;11.240;2023-02-03T03:21:13;4.40;99.90
18339;DHT22;9295;44.484;11.240;2023-02-03T03:23:45;4.50;99.90
18339;DHT22;9295;44.484;11.240;2023-02-03T03:26:21;4.50;99.90
18339;DHT22;9295;44.484;11.240;2023-02-03T03:28:53;4.50;99.90
18339;DHT22;9295;44.484;11.240;2023-02-03T03:31:25;4.50;99.90
18339;DHT22;9295;44.484;11.240;2023-02-03T03:33:55;4.50;99.90
18339;DHT22;9295;44.484;11.240;2023-02-03T03:36:26;4.40;99.90
18339;DHT22;9295;44.484;11.240;2023-02-03T03:39:01;4.40;99.90
18339;DHT22;9295;44.484;11.240;2023-02-03T03:41:36;4.30;99.90
18339;DHT22;9295;44.484;11.240;2023-02-03T03:44:11;4.40;99.90
18339;DHT22;9295;44.484;11.240;2023-02-03T03:46:43;4.40;99.90
18339;DHT22;9295;44.484;11.240;2023-02-03T03:49:15;4.40;99.90
18339;DHT22;9295;44.484;11.240;2023-02-03T03:51:47;4.40;99.90
18339;DHT22;9295;44.484;11.240;2023-02-03T03:54:19;4.40;99.90
18339;DHT22;9295;44.484;11.240;2023-02-03T03:56:52;4.30;99.90
18339;DHT22;9295;44.484;11.240;2023-02-03T03:59:26;4.30;99.90
18339;DHT22;9295;44.484;11.240;2023-02-03T04:01:56;4.40;99.90
18339;DHT22;9295;44.484;11.240;2023-02-03T04:04:33;4.50;99.90
18339;DHT22;9295;44.484;11.240;2023-02-03T04:07:02;4.50;99.90
18339;DHT22;9295;44.484;11.240;2023-02-03T04:09:31;4.40;99.90
18339;DHT22;9295;44.484;11.240;2023-02-03T04:12:03;4.40;99.90
18339;DHT22;9295;44.484;11.240;2023-02-03T04:14:34;4.20;99.90
18339;DHT22;9295;44.484;11.240;2023-02-03T04:17:05;4.10;99.90
18339;DHT22;9295;44.484;11.240;2023-02-03T04:19:34;4.10;99.90
18339;DHT22;9295;44.484;11.240;2023-02-03T04:22:05;4.00;99.90
18339;DHT22;9295;44.484;11.240;2023-02-03T04:24:33;4.00;99.90
18339;DHT22;9295;44.484;11.240;2023-02-03T04:27:02;3.90;99.90
18339;DHT22;9295;44.484;11.240;2023-02-03T04:29:31;3.90;99.90
18339;DHT22;9295;44.484;11.240;2023-02-03T04:32:00;3.80;99.90
18339;DHT22;9295;44.484;11.240;2023-02-03T04:34:28;3.80;99.90
18339;DHT22;9295;44.484;11.240;2023-02-03T04:36:58;3.70;99.90
18339;DHT22;9295;44.484;11.240;2023-02-03T04:39:26;3.70;99.90
18339;DHT22;9295;44.484;11.240;2023-02-03T04:41:55;3.70;99.90
18339;DHT22;9295;44.484;11.240;2023-02-03T04:44:23;3.80;99.90
18339;DHT22;9295;44.484;11.240;2023-02-03T04:46:52;3.80;99.90
18339;DHT22;9295;44.484;11.240;2023-02-03T04:49:20;3.80;99.90
18339;DHT22;9295;44.484;11.240;2023-02-03T04:51:49;3.90;99.90
18339;DHT22;9295;44.484;11.240;2023-02-03T04:54:19;3.90;99.90
18339;DHT22;9295;44.484;11.240;2023-02-03T04:56:47;3.90;99.90
18339;DHT22;9295;44.484;11.240;2023-02-03T04:59:16;3.90;99.90
18339;DHT22;9295;44.484;11.240;2023-02-03T05:01:44;3.90;99.90
18339;DHT22;9295;44.484;11.240;2023-02-03T05:04:12;3.90;99.90
18339;DHT22;9295;44.484;11.240;2023-02-03T05:06:41;4.00;99.90
18339;DHT22;9295;44.484;11.240;2023-02-03T05:09:09;3.90;99.90
18339;DHT22;9295;44.484;11.240;2023-02-03T05:11:39;4.00;99.90
18339;DHT22;9295;44.484;11.240;2023-02-03T05:14:08;4.00;99.90
18339;DHT22;9295;44.484;11.240;2023-02-03T05:16:36;3.90;99.90
18339;DHT22;9295;44.484;11.240;2023-02-03T05:19:05;3.90;99.90
18339;DHT22;9295;44.484;11.240;2023-02-03T05:21:35;3.90;99.90
18339;DHT22;9295;44.484;11.240;2023-02-03T05:24:04;3.90;99.90
18339;DHT22;9295;44.484;11.240;2023-02-03T05:26:34;3.90;99.90
18339;DHT22;9295;44.484;11.240;2023-02-03T05:29:04;3.80;99.90
18339;DHT22;9295;44.484;11.240;2023-02-03T05:31:32;3.80;99.90
18339;DHT22;9295;44.484;11.240;2023-02-03T05:34:01;3.80;99.90
18339;DHT22;9295;44.484;11.240;2023-02-03T05:36:29;3.70;99.90
18339;DHT22;9295;44.484;11.240;2023-02-03T05:38:58;3.70;99.90
18339;DHT22;9295;44.484;11.240;2023-02-03T05:41:26;3.60;99.90
18339;DHT22;9295;44.484;11.240;2023-02-03T05:44:13;3.60;99.90
18339;DHT22;9295;44.484;11.240;2023-02-03T05:46:42;3.60;99.90
18339;DHT22;9295;44.484;11.240;2023-02-03T05:49:10;3.60;99.90
18339;DHT22;9295;44.484;11.240;2023-02-03T05:51:39;3.60;99.90
18339;DHT22;9295;44.484;11.240;2023-02-03T05:54:08;3.60;99.90
18339;DHT22;9295;44.484;11.240;2023-02-03T05:56:37;3.70;99.90
18339;DHT22;9295;44.484;11.240;2023-02-03T05:59:05;3.70;99.90
18339;DHT22;9295;44.484;11.240;2023-02-03T06:01:36;3.70;99.90
18339;DHT22;9295;44.484;11.240;2023-02-03T06:04:04;3.60;99.90
18339;DHT22;9295;44.484;11.240;2023-02-03T06:06:33;3.70;99.90
18339;DHT22;9295;44.484;11.240;2023-02-03T06:09:04;3.60;99.90
18339;DHT22;9295;44.484;11.240;2023-02-03T06:11:34;3.60;99.90
18339;DHT22;9295;44.484;11.240;2023-02-03T06:14:03;3.60;99.90
18339;DHT22;9295;44.484;11.240;2023-02-03T06:16:31;3.60;99.90
18339;DHT22;9295;44.484;11.240;2023-02-03T06:19:01;3.60;99.90
18339;DHT22;9295;44.484;11.240;2023-02-03T06:21:30;3.60;99.90
18339;DHT22;9295;44.484;11.240;2023-02-03T06:23:58;3.60;99.90
18339;DHT22;9295;44.484;11.240;2023-02-03T06:26:27;3.60;99.90
18339;DHT22;9295;44.484;11.240;2023-02-03T06:28:55;3.60;99.90
18339;DHT22;9295;44.484;11.240;2023-02-03T06:31:24;3.70;99.90
18339;DHT22;9295;44.484;11.240;2023-02-03T06:33:52;3.70;99.90
18339;DHT22;9295;44.484;11.240;2023-02-03T06:36:25;3.70;99.90
18339;DHT22;9295;44.484;11.240;2023-02-03T06:38:53;3.70;99.90
18339;DHT22;9295;44.484;11.240;2023-02-03T06:41:22;3.80;99.90
18339;DHT22;9295;44.484;11.240;2023-02-03T06:43:54;3.80;99.90
18339;DHT22;9295;44.484;11.240;2023-02-03T06:46:23;3.90;99.90
18339;DHT22;9295;44.484;11.240;2023-02-03T06:48:54;3.90;99.90
18339;DHT22;9295;44.484;11.240;2023-02-03T06:51:22;3.90;99.90
18339;DHT22;9295;44.484;11.240;2023-02-03T06:53:53;3.90;99.90
18339;DHT22;9295;44.484;11.240;2023-02-03T06:56:21;4.00;99.90
18339;DHT22;9295;44.484;11.240;2023-02-03T06:58:50;4.00;99.90
18339;DHT22;9295;44.484;11.240;2023-02-03T07:01:18;4.00;99.90
18339;DHT22;9295;44.484;11.240;2023-02-03T07:03:47;4.10;99.90
18339;DHT22;9295;44.484;11.240;2023-02-03T07:06:15;4.20;99.90
18339;DHT22;9295;44.484;11.240;2023-02-03T07:08:44;4.10;99.90
18339;DHT22;9295;44.484;11.240;2023-02-03T07:11:13;4.00;99.90
18339;DHT22;9295;44.484;11.240;2023-02-03T07:13:42;4.00;99.90
18339;DHT22;9295;44.484;11.240;2023-02-03T07:16:10;4.10;99.90
18339;DHT22;9295;44.484;11.240;2023-02-03T07:18:39;4.30;99.90
18339;DHT22;9295;44.484;11.240;2023-02-03T07:21:15;4.50;99.90
18339;DHT22;9295;44.484;11.240;2023-02-03T07:23:45;4.70;99.90
18339;DHT22;9295;44.484;11.240;2023-02-03T07:26:16;4.70;99.90
18339;DHT22;9295;44.484;11.240;2023-02-03T07:28:45;4.80;99.90
18339;DHT22;9295;44.484;11.240;2023-02-03T07:31:13;4.90;99.90
18339;DHT22;9295;44.484;11.240;2023-02-03T07:33:42;5.00;99.90
18339;DHT22;9295;44.484;11.240;2023-02-03T07:36:10;5.10;99.90
18339;DHT22;9295;44.484;11.240;2023-02-03T07:38:39;5.20;99.90
18339;DHT22;9295;44.484;11.240;2023-02-03T07:41:07;5.50;99.90
18339;DHT22;9295;44.484;11.240;2023-02-03T07:43:37;5.70;99.90
18339;DHT22;9295;44.484;11.240;2023-02-03T07:46:06;6.00;99.90
18339;DHT22;9295;44.484;11.240;2023-02-03T07:48:34;6.20;99.90
18339;DHT22;9295;44.484;11.240;2023-02-03T07:51:03;6.40;99.90
18339;DHT22;9295;44.484;11.240;2023-02-03T07:53:32;6.50;99.90
18339;DHT22;9295;44.484;11.240;2023-02-03T07:56:01;6.90;99.90
18339;DHT22;9295;44.484;11.240;2023-02-03T07:58:30;7.40;99.90
18339;DHT22;9295;44.484;11.240;2023-02-03T08:01:00;7.70;99.90
18339;DHT22;9295;44.484;11.240;2023-02-03T08:03:28;8.00;99.90
18339;DHT22;9295;44.484;11.240;2023-02-03T08:05:57;8.50;99.90
18339;DHT22;9295;44.484;11.240;2023-02-03T08:08:25;9.10;99.90
18339;DHT22;9295;44.484;11.240;2023-02-03T08:10:54;10.00;99.90
18339;DHT22;9295;44.484;11.240;2023-02-03T08:13:23;10.60;99.90
18339;DHT22;9295;44.484;11.240;2023-02-03T08:15:51;10.70;99.90
18339;DHT22;9295;44.484;11.240;2023-02-03T08:18:21;10.70;99.90
18339;DHT22;9295;44.484;11.240;2023-02-03T08:20:50;10.50;99.90
18339;DHT22;9295;44.484;11.240;2023-02-03T08:23:18;10.00;99.90
18339;DHT22;9295;44.484;11.240;2023-02-03T08:25:50;9.50;99.90
18339;DHT22;9295;44.484;11.240;2023-02-03T08:28:19;9.20;99.90
18339;DHT22;9295;44.484;11.240;2023-02-03T08:30:47;9.00;99.90
18339;DHT22;9295;44.484;11.240;2023-02-03T08:33:16;9.00;99.90
18339;DHT22;9295;44.484;11.240;2023-02-03T08:35:48;9.10;99.90
18339;DHT22;9295;44.484;11.240;2023-02-03T08:38:17;9.10;99.90
18339;DHT22;9295;44.484;11.240;2023-02-03T08:40:47;9.10;99.90
18339;DHT22;9295;44.484;11.240;2023-02-03T08:43:16;9.10;99.90
18339;DHT22;9295;44.484;11.240;2023-02-03T08:45:45;9.10;99.90
18339;DHT22;9295;44.484;11.240;2023-02-03T08:48:13;9.20;99.90
18339;DHT22;9295;44.484;11.240;2023-02-03T08:50:42;9.30;99.90
18339;DHT22;9295;44.484;11.240;2023-02-03T08:53:19;9.50;99.90
18339;DHT22;9295;44.484;11.240;2023-02-03T08:55:47;9.80;99.90
18339;DHT22;9295;44.484;11.240;2023-02-03T08:58:16;10.00;99.90
18339;DHT22;9295;44.484;11.240;2023-02-03T09:00:45;10.30;99.90
18339;DHT22;9295;44.484;11.240;2023-02-03T09:03:16;10.50;99.90
18339;DHT22;9295;44.484;11.240;2023-02-03T09:05:44;10.70;99.90
18339;DHT22;9295;44.484;11.240;2023-02-03T09:08:13;10.70;99.90
18339;DHT22;9295;44.484;11.240;2023-02-03T09:10:43;10.70;99.90
18339;DHT22;9295;44.484;11.240;2023-02-03T09:13:11;10.60;99.90
18339;DHT22;9295;44.484;11.240;2023-02-03T09:15:40;10.60;99.90
18339;DHT22;9295;44.484;11.240;2023-02-03T09:18:08;10.70;99.90
18339;DHT22;9295;44.484;11.240;2023-02-03T09:20:37;10.60;99.90
18339;DHT22;9295;44.484;11.240;2023-02-03T09:23:05;10.70;99.90
18339;DHT22;9295;44.484;11.240;2023-02-03T09:25:34;10.80;99.90
18339;DHT22;9295;44.484;11.240;2023-02-03T09:28:04;10.80;99.90
18339;DHT22;9295;44.484;11.240;2023-02-03T09:30:33;10.70;99.90
18339;DHT22;9295;44.484;11.240;2023-02-03T09:33:01;10.70;99.90
18339;DHT22;9295;44.484;11.240;2023-02-03T09:35:30;10.60;99.90
18339;DHT22;9295;44.484;11.240;2023-02-03T09:37:58;10.50;99.90
18339;DHT22;9295;44.484;11.240;2023-02-03T09:40:32;10.30;99.90
18339;DHT22;9295;44.484;11.240;2023-02-03T09:43:12;10.30;99.90
18339;DHT22;9295;44.484;11.240;2023-02-03T09:45:42;10.20;99.90
18339;DHT22;9295;44.484;11.240;2023-02-03T09:48:13;10.00;99.90
18339;DHT22;9295;44.484;11.240;2023-02-03T09:50:44;9.90;99.90
18339;DHT22;9295;44.484;11.240;2023-02-03T09:53:22;10.10;99.90
18339;DHT22;9295;44.484;11.240;2023-02-03T09:55:52;10.30;99.90
18339;DHT22;9295;44.484;11.240;2023-02-03T09:58:23;10.40;99.90
18339;DHT22;9295;44.484;11.240;2023-02-03T10:00:56;10.30;99.90
18339;DHT22;9295;44.484;11.240;2023-02-03T10:03:32;10.40;99.90
18339;DHT22;9295;44.484;11.240;2023-02-03T10:06:13;10.40;99.90
18339;DHT22;9295;44.484;11.240;2023-02-03T10:09:14;10.40;99.90
18339;DHT22;9295;44.484;11.240;2023-02-03T10:11:59;10.30;99.90
18339;DHT22;9295;44.484;11.240;2023-02-03T10:14:49;10.30;99.90
18339;DHT22;9295;44.484;11.240;2023-02-03T10:17:26;10.30;99.90
18339;DHT22;9295;44.484;11.240;2023-02-03T10:20:02;10.40;99.90
18339;DHT22;9295;44.484;11.240;2023-02-03T10:22:33;10.40;99.90
18339;DHT22;9295;44.484;11.240;2023-02-03T10:25:09;10.40;99.90
18339;DHT22;9295;44.484;11.240;2023-02-03T10:27:43;10.40;99.90
18339;DHT22;9295;44.484;11.240;2023-02-03T10:30:18;10.40;99.90
18339;DHT22;9295;44.484;11.240;2023-02-03T10:32:50;10.40;99.90
18339;DHT22;9295;44.484;11.240;2023-02-03T10:35:21;10.40;99.90
18339;DHT22;9295;44.484;11.240;2023-02-03T10:37:57;10.30;99.90
18339;DHT22;9295;44.484;11.240;2023-02-03T10:40:26;10.30;99.90
18339;DHT22;9295;44.484;11.240;2023-02-03T10:42:55;9.60;99.90
18339;DHT22;9295;44.484;11.240;2023-02-03T10:45:43;9.30;99.90
18339;DHT22;9295;44.484;11.240;2023-02-03T10:48:14;9.50;99.90
18339;DHT22;9295;44.484;11.240;2023-02-03T10:50:48;10.00;99.90
18339;DHT22;9295;44.484;11.240;2023-02-03T10:53:22;10.40;99.90
18339;DHT22;9295;44.484;11.240;2023-02-03T10:56:00;10.60;99.90
18339;DHT22;9295;44.484;11.240;2023-02-03T10:58:30;10.70;99.90
18339;DHT22;9295;44.484;11.240;2023-02-03T11:01:10;10.80;99.90
18339;DHT22;9295;44.484;11.240;2023-02-03T11:03:42;10.80;99.90
18339;DHT22;9295;44.484;11.240;2023-02-03T11:06:12;10.90;99.90
18339;DHT22;9295;44.484;11.240;2023-02-03T11:08:43;10.90;99.90
18339;DHT22;9295;44.484;11.240;2023-02-03T11:11:13;10.90;99.90
18339;DHT22;9295;44.484;11.240;2023-02-03T11:13:42;10.90;99.90
18339;DHT22;9295;44.484;11.240;2023-02-03T11:16:14;10.80;99.90
18339;DHT22;9295;44.484;11.240;2023-02-03T11:18:49;10.80;99.90
18339;DHT22;9295;44.484;11.240;2023-02-03T11:21:20;10.90;99.90
18339;DHT22;9295;44.484;11.240;2023-02-03T11:23:54;11.00;99.90
18339;DHT22;9295;44.484;11.240;2023-02-03T11:26:27;11.10;99.90
18339;DHT22;9295;44.484;11.240;2023-02-03T11:28:58;11.10;99.90
18339;DHT22;9295;44.484;11.240;2023-02-03T11:31:31;11.10;99.90
18339;DHT22;9295;44.484;11.240;2023-02-03T11:34:02;11.00;99.90
18339;DHT22;9295;44.484;11.240;2023-02-03T11:36:33;11.00;99.90
18339;DHT22;9295;44.484;11.240;2023-02-03T11:39:19;11.00;99.90
18339;DHT22;9295;44.484;11.240;2023-02-03T11:41:48;10.70;99.90
18339;DHT22;9295;44.484;11.240;2023-02-03T11:44:22;10.30;99.90
18339;DHT22;9295;44.484;11.240;2023-02-03T11:46:56;10.20;99.90
18339;DHT22;9295;44.484;11.240;2023-02-03T11:50:02;10.70;99.90
18339;DHT22;9295;44.484;11.240;2023-02-03T11:52:46;11.20;99.90
18339;DHT22;9295;44.484;11.240;2023-02-03T11:55:26;11.40;99.90
18339;DHT22;9295;44.484;11.240;2023-02-03T12:01:04;11.10;99.90
18339;DHT22;9295;44.484;11.240;2023-02-03T12:04:01;11.30;99.90
18339;DHT22;9295;44.484;11.240;2023-02-03T12:06:47;11.40;99.90
18339;DHT22;9295;44.484;11.240;2023-02-03T12:09:26;11.10;99.90
18339;DHT22;9295;44.484;11.240;2023-02-03T12:12:14;10.40;99.90
18339;DHT22;9295;44.484;11.240;2023-02-03T12:14:51;10.10;99.90
18339;DHT22;9295;44.484;11.240;2023-02-03T12:17:32;9.90;99.90
18339;DHT22;9295;44.484;11.240;2023-02-03T12:20:27;10.10;99.90
18339;DHT22;9295;44.484;11.240;2023-02-03T12:23:07;10.40;99.90
18339;DHT22;9295;44.484;11.240;2023-02-03T12:25:49;10.50;99.90
18339;DHT22;9295;44.484;11.240;2023-02-03T12:28:28;10.70;99.90
18339;DHT22;9295;44.484;11.240;2023-02-03T12:31:06;10.20;99.90
18339;DHT22;9295;44.484;11.240;2023-02-03T12:33:39;10.00;99.90
18339;DHT22;9295;44.484;11.240;2023-02-03T12:36:14;10.30;99.90
18339;DHT22;9295;44.484;11.240;2023-02-03T12:38:49;10.60;99.90
18339;DHT22;9295;44.484;11.240;2023-02-03T12:41:21;10.80;99.90
18339;DHT22;9295;44.484;11.240;2023-02-03T12:43:56;10.50;99.90
18339;DHT22;9295;44.484;11.240;2023-02-03T12:46:28;10.20;99.90
18339;DHT22;9295;44.484;11.240;2023-02-03T12:49:02;10.00;99.90
18339;DHT22;9295;44.484;11.240;2023-02-03T12:51:37;9.90;99.90
18339;DHT22;9295;44.484;11.240;2023-02-03T12:54:12;10.20;99.90
18339;DHT22;9295;44.484;11.240;2023-02-03T12:56:46;10.50;99.90
18339;DHT22;9295;44.484;11.240;2023-02-03T12:59:22;10.80;99.90
18339;DHT22;9295;44.484;11.240;2023-02-03T13:01:56;10.90;99.90
18339;DHT22;9295;44.484;11.240;2023-02-03T13:04:32;10.40;99.90
18339;DHT22;9295;44.484;11.240;2023-02-03T13:07:09;10.60;99.90
18339;DHT22;9295;44.484;11.240;2023-02-03T13:09:44;11.00;99.90
18339;DHT22;9295;44.484;11.240;2023-02-03T13:12:26;11.30;99.90
18339;DHT22;9295;44.484;11.240;2023-02-03T13:15:02;11.60;99.90
18339;DHT22;9295;44.484;11.240;2023-02-03T13:17:40;11.80;99.90
18339;DHT22;9295;44.484;11.240;2023-02-03T13:20:16;11.40;99.90
18339;DHT22;9295;44.484;11.240;2023-02-03T13:22:47;11.00;99.90
18339;DHT22;9295;44.484;11.240;2023-02-03T13:25:23;11.10;99.90
18339;DHT22;9295;44.484;11.240;2023-02-03T13:28:01;11.10;99.90
18339;DHT22;9295;44.484;11.240;2023-02-03T13:30:57;11.30;99.90
18339;DHT22;9295;44.484;11.240;2023-02-03T13:33:56;11.60;99.90
18339;DHT22;9295;44.484;11.240;2023-02-03T13:36:52;11.80;99.90
18339;DHT22;9295;44.484;11.240;2023-02-03T13:39:44;12.00;99.90
18339;DHT22;9295;44.484;11.240;2023-02-03T13:42:22;12.30;99.90
18339;DHT22;9295;44.484;11.240;2023-02-03T13:44:55;12.20;99.90
18339;DHT22;9295;44.484;11.240;2023-02-03T13:47:27;11.70;99.90
18339;DHT22;9295;44.484;11.240;2023-02-03T13:49:59;11.80;99.90
18339;DHT22;9295;44.484;11.240;2023-02-03T13:52:33;11.80;99.90
18339;DHT22;9295;44.484;11.240;2023-02-03T13:55:04;12.10;99.90
18339;DHT22;9295;44.484;11.240;2023-02-03T13:57:35;12.40;99.90
18339;DHT22;9295;44.484;11.240;2023-02-03T14:00:10;12.70;99.90
18339;DHT22;9295;44.484;11.240;2023-02-03T14:02:55;12.70;99.90
18339;DHT22;9295;44.484;11.240;2023-02-03T14:05:44;12.30;99.90
18339;DHT22;9295;44.484;11.240;2023-02-03T14:11:41;11.80;99.90
18339;DHT22;9295;44.484;11.240;2023-02-03T14:14:41;11.80;99.90
18339;DHT22;9295;44.484;11.240;2023-02-03T14:17:53;12.20;99.90
18339;DHT22;9295;44.484;11.240;2023-02-03T14:20:41;12.60;99.90
18339;DHT22;9295;44.484;11.240;2023-02-03T14:23:15;12.70;99.90
18339;DHT22;9295;44.484;11.240;2023-02-03T14:25:51;12.60;99.90
18339;DHT22;9295;44.484;11.240;2023-02-03T14:28:25;12.20;99.90
18339;DHT22;9295;44.484;11.240;2023-02-03T14:31:07;12.20;99.90
18339;DHT22;9295;44.484;11.240;2023-02-03T14:33:53;12.30;99.90
18339;DHT22;9295;44.484;11.240;2023-02-03T14:36:50;12.40;99.90
18339;DHT22;9295;44.484;11.240;2023-02-03T14:39:47;12.50;99.90
18339;DHT22;9295;44.484;11.240;2023-02-03T14:42:37;12.40;99.90
18339;DHT22;9295;44.484;11.240;2023-02-03T14:45:20;11.70;99.90
18339;DHT22;9295;44.484;11.240;2023-02-03T14:47:59;11.50;99.90
18339;DHT22;9295;44.484;11.240;2023-02-03T14:50:43;11.60;99.90
18339;DHT22;9295;44.484;11.240;2023-02-03T14:53:25;11.80;99.90
18339;DHT22;9295;44.484;11.240;2023-02-03T14:56:10;12.10;99.90
18339;DHT22;9295;44.484;11.240;2023-02-03T14:58:44;12.30;99.90
18339;DHT22;9295;44.484;11.240;2023-02-03T15:01:26;12.40;99.90
18339;DHT22;9295;44.484;11.240;2023-02-03T15:04:23;12.20;99.90
18339;DHT22;9295;44.484;11.240;2023-02-03T15:06:52;11.90;99.90
18339;DHT22;9295;44.484;11.240;2023-02-03T15:09:25;11.90;99.90
18339;DHT22;9295;44.484;11.240;2023-02-03T15:11:54;12.00;99.90
18339;DHT22;9295;44.484;11.240;2023-02-03T15:14:24;12.20;99.90
18339;DHT22;9295;44.484;11.240;2023-02-03T15:16:56;12.20;99.90
18339;DHT22;9295;44.484;11.240;2023-02-03T15:19:30;12.10;99.90
18339;DHT22;9295;44.484;11.240;2023-02-03T15:21:59;11.70;99.90
18339;DHT22;9295;44.484;11.240;2023-02-03T15:24:35;11.60;99.90
18339;DHT22;9295;44.484;11.240;2023-02-03T15:27:04;11.30;99.90
18339;DHT22;9295;44.484;11.240;2023-02-03T15:29:33;11.20;99.90
18339;DHT22;9295;44.484;11.240;2023-02-03T15:32:08;11.40;99.90
18339;DHT22;9295;44.484;11.240;2023-02-03T15:34:43;11.50;99.90
18339;DHT22;9295;44.484;11.240;2023-02-03T15:37:16;11.60;99.90
18339;DHT22;9295;44.484;11.240;2023-02-03T15:39:53;11.60;99.90
18339;DHT22;9295;44.484;11.240;2023-02-03T15:42:28;11.40;99.90
18339;DHT22;9295;44.484;11.240;2023-02-03T15:45:01;11.50;99.90
18339;DHT22;9295;44.484;11.240;2023-02-03T15:47:34;11.50;99.90
18339;DHT22;9295;44.484;11.240;2023-02-03T15:50:22;11.40;99.90
18339;DHT22;9295;44.484;11.240;2023-02-03T15:52:54;11.10;99.90
18339;DHT22;9295;44.484;11.240;2023-02-03T15:55:29;10.80;99.90
18339;DHT22;9295;44.484;11.240;2023-02-03T15:58:00;10.70;99.90
18339;DHT22;9295;44.484;11.240;2023-02-03T16:00:33;10.60;99.90
18339;DHT22;9295;44.484;11.240;2023-02-03T16:03:12;10.50;99.90
18339;DHT22;9295;44.484;11.240;2023-02-03T16:05:44;10.50;99.90
18339;DHT22;9295;44.484;11.240;2023-02-03T16:08:35;10.50;99.90
18339;DHT22;9295;44.484;11.240;2023-02-03T16:14:06;10.50;99.90
18339;DHT22;9295;44.484;11.240;2023-02-03T16:16:38;10.40;99.90
18339;DHT22;9295;44.484;11.240;2023-02-03T16:19:19;9.90;99.90
18339;DHT22;9295;44.484;11.240;2023-02-03T16:21:54;9.80;99.90
18339;DHT22;9295;44.484;11.240;2023-02-03T16:24:36;9.60;99.90
18339;DHT22;9295;44.484;11.240;2023-02-03T16:27:29;9.70;99.90
18339;DHT22;9295;44.484;11.240;2023-02-03T16:30:22;9.80;99.90
18339;DHT22;9295;44.484;11.240;2023-02-03T16:33:14;9.90;99.90